sensor_id;sensor_type;location;lat;lon;timestamp;pressure;altitude;pressure_sealevel;temperature;humidity
49759;BME280;35654;46.080;11.118;2023-01-28T00:00:15;99383.00;;;2.49;68.91
49759;BME280;35654;46.080;11.118;2023-01-28T00:02:42;99391.09;;;2.49;68.83
49759;BME280;35654;46.080;11.118;2023-01-28T00:05:09;99388.91;;;2.46;68.83
49759;BME280;35654;46.080;11.118;2023-01-28T00:07:36;99385.50;;;2.39;68.75
49759;BME280;35654;46.080;11.118;2023-01-28T00:10:03;99381.47;;;2.24;69.50
49759;BME280;35654;46.080;11.118;2023-01-28T00:12:30;99388.41;;;2.20;70.24
49759;BME280;35654;46.080;11.118;2023-01-28T00:14:56;99373.69;;;2.28;70.26
49759;BME280;35654;46.080;11.118;2023-01-28T00:17:23;99369.44;;;2.32;69.82
49759;BME280;35654;46.080;11.118;2023-01-28T00:19:49;99375.66;;;2.32;69.41
49759;BME280;35654;46.080;11.118;2023-01-28T00:22:16;99383.94;;;2.26;70.13
49759;BME280;35654;46.080;11.118;2023-01-28T00:24:43;99380.84;;;2.34;70.10
49759;BME280;35654;46.080;11.118;2023-01-28T00:27:10;99388.09;;;2.45;70.11
49759;BME280;35654;46.080;11.118;2023-01-28T00:29:37;99389.22;;;2.49;69.96
49759;BME280;35654;46.080;11.118;2023-01-28T00:32:03;99392.75;;;2.50;69.23
49759;BME280;35654;46.080;11.118;2023-01-28T00:34:30;99385.56;;;2.27;69.30
49759;BME280;35654;46.080;11.118;2023-01-28T00:36:56;99382.88;;;2.15;70.34
49759;BME280;35654;46.080;11.118;2023-01-28T00:39:24;99386.75;;;2.19;70.79
49759;BME280;35654;46.080;11.118;2023-01-28T00:41:52;99386.28;;;2.22;70.74
49759;BME280;35654;46.080;11.118;2023-01-28T00:44:21;99388.16;;;2.22;70.70
49759;BME280;35654;46.080;11.118;2023-01-28T00:46:48;99393.94;;;2.14;70.99
49759;BME280;35654;46.080;11.118;2023-01-28T00:49:15;99389.13;;;2.16;70.64
49759;BME280;35654;46.080;11.118;2023-01-28T00:51:42;99392.16;;;2.19;70.96
49759;BME280;35654;46.080;11.118;2023-01-28T00:54:10;99379.22;;;2.21;71.08
49759;BME280;35654;46.080;11.118;2023-01-28T00:56:37;99380.88;;;2.22;71.11
49759;BME280;35654;46.080;11.118;2023-01-28T00:59:04;99381.47;;;2.24;71.02
49759;BME280;35654;46.080;11.118;2023-01-28T01:01:31;99384.19;;;2.13;70.81
49759;BME280;35654;46.080;11.118;2023-01-28T01:03:57;99386.00;;;1.96;72.00
49759;BME280;35654;46.080;11.118;2023-01-28T01:06:36;99382.38;;;1.90;72.89
49759;BME280;35654;46.080;11.118;2023-01-28T01:09:05;99396.59;;;1.97;72.49
49759;BME280;35654;46.080;11.118;2023-01-28T01:11:32;99395.38;;;2.05;72.03
49759;BME280;35654;46.080;11.118;2023-01-28T01:14:00;99389.16;;;2.04;71.75
49759;BME280;35654;46.080;11.118;2023-01-28T01:16:30;99391.41;;;1.96;71.63
49759;BME280;35654;46.080;11.118;2023-01-28T01:18:58;99395.63;;;2.03;71.33
49759;BME280;35654;46.080;11.118;2023-01-28T01:21:27;99396.31;;;2.10;71.51
49759;BME280;35654;46.080;11.118;2023-01-28T01:23:55;99400.19;;;2.14;71.23
49759;BME280;35654;46.080;11.118;2023-01-28T01:26:22;99400.75;;;2.16;71.26
49759;BME280;35654;46.080;11.118;2023-01-28T01:28:50;99401.00;;;2.15;71.33
49759;BME280;35654;46.080;11.118;2023-01-28T01:31:18;99400.31;;;2.08;71.16
49759;BME280;35654;46.080;11.118;2023-01-28T01:33:48;99407.50;;;1.91;71.67
49759;BME280;35654;46.080;11.118;2023-01-28T01:36:15;99403.53;;;1.82;72.61
49759;BME280;35654;46.080;11.118;2023-01-28T01:38:42;99410.47;;;1.89;72.65
49759;BME280;35654;46.080;11.118;2023-01-28T01:41:23;99403.50;;;1.93;72.66
49759;BME280;35654;46.080;11.118;2023-01-28T01:44:00;99397.41;;;1.98;72.49
49759;BME280;35654;46.080;11.118;2023-01-28T01:46:38;99396.94;;;2.01;71.97
49759;BME280;35654;46.080;11.118;2023-01-28T01:49:24;99395.16;;;2.06;71.82
49759;BME280;35654;46.080;11.118;2023-01-28T01:51:55;99398.53;;;2.13;71.96
49759;BME280;35654;46.080;11.118;2023-01-28T01:54:25;99400.19;;;2.14;72.17
49759;BME280;35654;46.080;11.118;2023-01-28T01:56:54;99399.56;;;2.12;72.21
49759;BME280;35654;46.080;11.118;2023-01-28T01:59:25;99406.28;;;2.10;72.14
49759;BME280;35654;46.080;11.118;2023-01-28T02:01:54;99409.34;;;2.13;71.98
49759;BME280;35654;46.080;11.118;2023-01-28T02:04:32;99413.91;;;2.13;71.87
49759;BME280;35654;46.080;11.118;2023-01-28T02:07:01;99400.44;;;2.01;71.67
49759;BME280;35654;46.080;11.118;2023-01-28T02:09:31;99408.69;;;1.83;73.80
49759;BME280;35654;46.080;11.118;2023-01-28T02:14:35;99410.25;;;1.67;75.59
49759;BME280;35654;46.080;11.118;2023-01-28T02:17:04;99411.66;;;1.58;75.21
49759;BME280;35654;46.080;11.118;2023-01-28T02:19:45;99415.50;;;1.74;74.65
49759;BME280;35654;46.080;11.118;2023-01-28T02:22:26;99409.06;;;1.87;73.78
49759;BME280;35654;46.080;11.118;2023-01-28T02:25:33;99411.72;;;1.98;72.88
49759;BME280;35654;46.080;11.118;2023-01-28T02:31:51;99411.72;;;1.98;73.18
49759;BME280;35654;46.080;11.118;2023-01-28T02:34:55;99408.78;;;2.00;72.75
49759;BME280;35654;46.080;11.118;2023-01-28T02:40:11;99414.53;;;2.03;72.84
49759;BME280;35654;46.080;11.118;2023-01-28T02:42:40;99411.84;;;2.03;72.92
49759;BME280;35654;46.080;11.118;2023-01-28T02:45:29;99409.97;;;2.04;72.38
49759;BME280;35654;46.080;11.118;2023-01-28T02:48:17;99413.59;;;2.09;72.12
49759;BME280;35654;46.080;11.118;2023-01-28T02:50:59;99416.88;;;2.11;72.11
49759;BME280;35654;46.080;11.118;2023-01-28T02:54:03;99414.50;;;2.15;71.66
49759;BME280;35654;46.080;11.118;2023-01-28T02:59:22;99425.53;;;2.13;71.54
49759;BME280;35654;46.080;11.118;2023-01-28T03:05:10;99421.09;;;2.07;72.06
49759;BME280;35654;46.080;11.118;2023-01-28T03:07:38;99415.59;;;2.02;72.29
49759;BME280;35654;46.080;11.118;2023-01-28T03:10:06;99415.22;;;1.99;72.49
49759;BME280;35654;46.080;11.118;2023-01-28T03:12:36;99415.38;;;2.04;72.32
49759;BME280;35654;46.080;11.118;2023-01-28T03:15:30;99420.63;;;1.99;72.23
49759;BME280;35654;46.080;11.118;2023-01-28T03:27:32;99427.69;;;1.88;72.87
49759;BME280;35654;46.080;11.118;2023-01-28T03:30:39;99429.47;;;1.94;72.29
49759;BME280;35654;46.080;11.118;2023-01-28T03:33:27;99431.44;;;1.99;71.89
49759;BME280;35654;46.080;11.118;2023-01-28T03:36:16;99439.22;;;1.95;72.54
49759;BME280;35654;46.080;11.118;2023-01-28T03:39:01;99441.09;;;1.95;72.20
49759;BME280;35654;46.080;11.118;2023-01-28T03:41:27;99445.56;;;1.89;72.06
49759;BME280;35654;46.080;11.118;2023-01-28T03:43:54;99456.25;;;1.72;72.46
49759;BME280;35654;46.080;11.118;2023-01-28T03:46:21;99447.09;;;1.62;72.94
49759;BME280;35654;46.080;11.118;2023-01-28T03:48:48;99455.06;;;1.57;72.94
49759;BME280;35654;46.080;11.118;2023-01-28T03:51:14;99463.88;;;1.52;73.29
49759;BME280;35654;46.080;11.118;2023-01-28T03:53:41;99456.13;;;1.44;74.01
49759;BME280;35654;46.080;11.118;2023-01-28T03:56:08;99462.00;;;1.53;73.34
49759;BME280;35654;46.080;11.118;2023-01-28T03:58:35;99463.41;;;1.55;73.42
49759;BME280;35654;46.080;11.118;2023-01-28T04:01:20;99462.84;;;1.53;73.18
49759;BME280;35654;46.080;11.118;2023-01-28T04:03:47;99462.84;;;1.53;73.27
49759;BME280;35654;46.080;11.118;2023-01-28T04:06:13;99456.81;;;1.51;73.63
49759;BME280;35654;46.080;11.118;2023-01-28T04:08:40;99465.75;;;1.52;73.54
49759;BME280;35654;46.080;11.118;2023-01-28T04:11:11;99471.72;;;1.54;73.15
49759;BME280;35654;46.080;11.118;2023-01-28T04:13:46;99471.72;;;1.54;73.34
49759;BME280;35654;46.080;11.118;2023-01-28T04:16:15;99474.44;;;1.42;73.63
49759;BME280;35654;46.080;11.118;2023-01-28T04:18:42;99471.75;;;1.42;74.09
49759;BME280;35654;46.080;11.118;2023-01-28T04:21:09;99473.59;;;1.42;73.85
49759;BME280;35654;46.080;11.118;2023-01-28T04:23:36;99477.34;;;1.29;74.18
49759;BME280;35654;46.080;11.118;2023-01-28T04:26:03;99472.38;;;1.14;75.01
49759;BME280;35654;46.080;11.118;2023-01-28T04:28:29;99470.50;;;1.15;75.02
49759;BME280;35654;46.080;11.118;2023-01-28T04:30:56;99475.91;;;1.15;75.22
49759;BME280;35654;46.080;11.118;2023-01-28T04:33:23;99482.53;;;1.01;75.87
49759;BME280;35654;46.080;11.118;2023-01-28T04:35:49;99490.53;;;1.07;76.82
49759;BME280;35654;46.080;11.118;2023-01-28T04:38:16;99493.38;;;1.12;75.94
49759;BME280;35654;46.080;11.118;2023-01-28T04:40:43;99491.03;;;1.16;76.09
49759;BME280;35654;46.080;11.118;2023-01-28T04:43:11;99499.47;;;1.08;75.46
49759;BME280;35654;46.080;11.118;2023-01-28T04:45:38;99499.09;;;1.04;75.74
49759;BME280;35654;46.080;11.118;2023-01-28T04:48:05;99500.84;;;0.99;76.10
49759;BME280;35654;46.080;11.118;2023-01-28T04:50:32;99502.41;;;0.77;76.76
49759;BME280;35654;46.080;11.118;2023-01-28T04:52:59;99505.41;;;0.69;78.50
49759;BME280;35654;46.080;11.118;2023-01-28T04:55:25;99509.53;;;0.71;77.84
49759;BME280;35654;46.080;11.118;2023-01-28T04:57:52;99511.97;;;0.73;77.70
49759;BME280;35654;46.080;11.118;2023-01-28T05:00:19;99517.84;;;0.70;77.71
49759;BME280;35654;46.080;11.118;2023-01-28T05:02:46;99521.78;;;0.67;78.11
49759;BME280;35654;46.080;11.118;2023-01-28T05:05:12;99530.56;;;0.63;78.46
49759;BME280;35654;46.080;11.118;2023-01-28T05:07:39;99524.00;;;0.58;78.50
49759;BME280;35654;46.080;11.118;2023-01-28T05:10:06;99533.34;;;0.56;78.28
49759;BME280;35654;46.080;11.118;2023-01-28T05:12:33;99534.84;;;0.52;78.91
49759;BME280;35654;46.080;11.118;2023-01-28T05:14:59;99534.03;;;0.51;78.35
49759;BME280;35654;46.080;11.118;2023-01-28T05:17:27;99534.25;;;0.50;78.55
49759;BME280;35654;46.080;11.118;2023-01-28T05:19:54;99550.63;;;0.48;78.64
49759;BME280;35654;46.080;11.118;2023-01-28T05:22:20;99558.72;;;0.48;78.67
49759;BME280;35654;46.080;11.118;2023-01-28T05:24:47;99561.50;;;0.42;78.43
49759;BME280;35654;46.080;11.118;2023-01-28T05:27:14;99553.69;;;0.34;78.55
49759;BME280;35654;46.080;11.118;2023-01-28T05:29:41;99556.25;;;0.29;78.61
49759;BME280;35654;46.080;11.118;2023-01-28T05:32:06;99558.34;;;0.27;78.78
49759;BME280;35654;46.080;11.118;2023-01-28T05:34:31;99556.94;;;0.24;78.74
49759;BME280;35654;46.080;11.118;2023-01-28T05:36:57;99567.69;;;0.24;78.85
49759;BME280;35654;46.080;11.118;2023-01-28T05:39:23;99563.78;;;0.20;79.23
49759;BME280;35654;46.080;11.118;2023-01-28T05:41:50;99558.41;;;0.20;79.01
49759;BME280;35654;46.080;11.118;2023-01-28T05:44:16;99552.72;;;0.10;79.28
49759;BME280;35654;46.080;11.118;2023-01-28T05:46:43;99559.38;;;0.08;79.60
49759;BME280;35654;46.080;11.118;2023-01-28T05:49:12;99554.44;;;0.05;79.97
49759;BME280;35654;46.080;11.118;2023-01-28T05:51:39;99555.19;;;0.12;79.47
49759;BME280;35654;46.080;11.118;2023-01-28T05:54:06;99558.84;;;0.17;79.54
49759;BME280;35654;46.080;11.118;2023-01-28T05:56:34;99567.31;;;0.21;79.46
49759;BME280;35654;46.080;11.118;2023-01-28T05:59:03;99570.59;;;0.23;79.41
49759;BME280;35654;46.080;11.118;2023-01-28T06:01:30;99582.44;;;0.22;79.23
49759;BME280;35654;46.080;11.118;2023-01-28T06:03:57;99584.75;;;0.18;79.66
49759;BME280;35654;46.080;11.118;2023-01-28T06:06:24;99596.41;;;0.12;79.97
49759;BME280;35654;46.080;11.118;2023-01-28T06:08:51;99605.75;;;0.10;80.40
49759;BME280;35654;46.080;11.118;2023-01-28T06:11:16;99598.19;;;0.00;80.22
49759;BME280;35654;46.080;11.118;2023-01-28T06:13:42;99600.66;;;0.02;80.18
49759;BME280;35654;46.080;11.118;2023-01-28T06:16:07;99615.16;;;0.00;80.15
49759;BME280;35654;46.080;11.118;2023-01-28T06:18:33;99611.03;;;-0.02;80.61
49759;BME280;35654;46.080;11.118;2023-01-28T06:20:59;99612.69;;;-0.01;80.34
49759;BME280;35654;46.080;11.118;2023-01-28T06:23:24;99618.06;;;-0.01;80.43
49759;BME280;35654;46.080;11.118;2023-01-28T06:25:55;99615.59;;;-0.03;80.43
49759;BME280;35654;46.080;11.118;2023-01-28T06:28:21;99612.09;;;-0.03;80.90
49759;BME280;35654;46.080;11.118;2023-01-28T06:30:51;99624.72;;;-0.04;80.80
49759;BME280;35654;46.080;11.118;2023-01-28T06:33:18;99632.78;;;-0.04;80.96
49759;BME280;35654;46.080;11.118;2023-01-28T06:35:44;99639.00;;;-0.03;80.73
49759;BME280;35654;46.080;11.118;2023-01-28T06:38:11;99644.59;;;-0.05;80.99
49759;BME280;35654;46.080;11.118;2023-01-28T06:40:37;99644.81;;;-0.06;80.97
49759;BME280;35654;46.080;11.118;2023-01-28T06:43:03;99650.53;;;-0.21;80.37
49759;BME280;35654;46.080;11.118;2023-01-28T06:45:29;99645.81;;;-0.25;80.60
49759;BME280;35654;46.080;11.118;2023-01-28T06:47:55;99654.13;;;-0.33;80.76
49759;BME280;35654;46.080;11.118;2023-01-28T06:50:20;99658.03;;;-0.29;80.76
49759;BME280;35654;46.080;11.118;2023-01-28T06:52:47;99642.66;;;-0.22;79.45
49759;BME280;35654;46.080;11.118;2023-01-28T06:55:12;99648.44;;;-0.19;79.56
49759;BME280;35654;46.080;11.118;2023-01-28T06:57:39;99649.50;;;-0.20;79.14
49759;BME280;35654;46.080;11.118;2023-01-28T07:00:06;99650.50;;;-0.14;79.09
49759;BME280;35654;46.080;11.118;2023-01-28T07:02:32;99655.41;;;-0.11;78.91
49759;BME280;35654;46.080;11.118;2023-01-28T07:04:59;99664.16;;;-0.16;79.00
49759;BME280;35654;46.080;11.118;2023-01-28T07:07:26;99659.19;;;-0.19;79.15
49759;BME280;35654;46.080;11.118;2023-01-28T07:09:51;99661.88;;;-0.19;79.09
49759;BME280;35654;46.080;11.118;2023-01-28T07:12:18;99660.47;;;-0.21;78.98
49759;BME280;35654;46.080;11.118;2023-01-28T07:14:44;99668.53;;;-0.21;79.46
49759;BME280;35654;46.080;11.118;2023-01-28T07:17:11;99666.00;;;-0.16;79.08
49759;BME280;35654;46.080;11.118;2023-01-28T07:19:37;99669.69;;;-0.11;78.78
49759;BME280;35654;46.080;11.118;2023-01-28T07:22:04;99668.81;;;-0.05;78.39
49759;BME280;35654;46.080;11.118;2023-01-28T07:24:31;99674.59;;;-0.01;78.52
49759;BME280;35654;46.080;11.118;2023-01-28T07:26:57;99678.72;;;0.02;78.02
49759;BME280;35654;46.080;11.118;2023-01-28T07:29:22;99689.06;;;0.05;78.04
49759;BME280;35654;46.080;11.118;2023-01-28T07:31:48;99684.06;;;0.08;78.24
49759;BME280;35654;46.080;11.118;2023-01-28T07:34:13;99699.78;;;0.11;77.68
49759;BME280;35654;46.080;11.118;2023-01-28T07:36:40;99688.78;;;0.13;77.94
49759;BME280;35654;46.080;11.118;2023-01-28T07:39:06;99692.06;;;0.15;77.90
49759;BME280;35654;46.080;11.118;2023-01-28T07:41:34;99700.75;;;0.17;77.60
49759;BME280;35654;46.080;11.118;2023-01-28T07:44:00;99697.16;;;0.23;77.52
49759;BME280;35654;46.080;11.118;2023-01-28T07:46:27;99692.19;;;0.26;77.34
49759;BME280;35654;46.080;11.118;2023-01-28T07:48:54;99701.69;;;0.29;77.19
49759;BME280;35654;46.080;11.118;2023-01-28T07:51:19;99703.94;;;0.32;76.61
49759;BME280;35654;46.080;11.118;2023-01-28T07:53:46;99698.81;;;0.24;76.26
49759;BME280;35654;46.080;11.118;2023-01-28T07:56:11;99701.91;;;0.27;76.10
49759;BME280;35654;46.080;11.118;2023-01-28T07:58:36;99708.72;;;0.30;76.48
49759;BME280;35654;46.080;11.118;2023-01-28T08:01:03;99705.34;;;0.34;76.34
49759;BME280;35654;46.080;11.118;2023-01-28T08:03:28;99700.75;;;0.41;75.80
49759;BME280;35654;46.080;11.118;2023-01-28T08:05:55;99704.03;;;0.43;76.33
49759;BME280;35654;46.080;11.118;2023-01-28T08:08:24;99703.03;;;0.63;75.11
49759;BME280;35654;46.080;11.118;2023-01-28T08:10:51;99707.00;;;0.78;75.08
49759;BME280;35654;46.080;11.118;2023-01-28T08:13:17;99709.78;;;0.90;74.28
49759;BME280;35654;46.080;11.118;2023-01-28T08:15:43;99700.72;;;1.02;73.71
49759;BME280;35654;46.080;11.118;2023-01-28T08:18:11;99709.69;;;1.14;72.83
49759;BME280;35654;46.080;11.118;2023-01-28T08:20:38;99712.31;;;1.21;71.99
49759;BME280;35654;46.080;11.118;2023-01-28T08:25:33;99710.25;;;1.53;70.48
49759;BME280;35654;46.080;11.118;2023-01-28T08:27:59;99713.22;;;1.63;69.70
49759;BME280;35654;46.080;11.118;2023-01-28T08:30:25;99711.63;;;1.73;68.36
49759;BME280;35654;46.080;11.118;2023-01-28T08:32:50;99718.25;;;1.89;67.55
49759;BME280;35654;46.080;11.118;2023-01-28T08:35:16;99715.81;;;1.99;66.91
49759;BME280;35654;46.080;11.118;2023-01-28T08:37:41;99722.75;;;1.95;65.68
49759;BME280;35654;46.080;11.118;2023-01-28T08:40:07;99723.34;;;1.97;65.82
49759;BME280;35654;46.080;11.118;2023-01-28T08:42:33;99714.00;;;1.82;64.91
49759;BME280;35654;46.080;11.118;2023-01-28T08:44:58;99722.59;;;1.90;64.69
49759;BME280;35654;46.080;11.118;2023-01-28T08:47:23;99719.72;;;2.03;64.45
49759;BME280;35654;46.080;11.118;2023-01-28T08:49:49;99719.50;;;2.16;63.98
49759;BME280;35654;46.080;11.118;2023-01-28T08:52:14;99710.84;;;2.26;63.13
49759;BME280;35654;46.080;11.118;2023-01-28T08:54:39;99727.53;;;2.46;62.92
49759;BME280;35654;46.080;11.118;2023-01-28T08:57:05;99728.25;;;2.53;62.54
49759;BME280;35654;46.080;11.118;2023-01-28T08:59:30;99722.72;;;2.71;62.02
49759;BME280;35654;46.080;11.118;2023-01-28T09:01:56;99735.56;;;2.76;62.05
49759;BME280;35654;46.080;11.118;2023-01-28T09:04:21;99733.31;;;2.84;61.85
49759;BME280;35654;46.080;11.118;2023-01-28T09:06:46;99743.16;;;3.02;61.43
49759;BME280;35654;46.080;11.118;2023-01-28T09:09:12;99741.84;;;3.16;60.59
49759;BME280;35654;46.080;11.118;2023-01-28T09:11:37;99744.19;;;3.24;58.48
49759;BME280;35654;46.080;11.118;2023-01-28T09:14:03;99741.00;;;3.27;58.49
49759;BME280;35654;46.080;11.118;2023-01-28T09:16:28;99736.53;;;3.21;57.75
49759;BME280;35654;46.080;11.118;2023-01-28T09:18:54;99742.53;;;3.35;58.11
49759;BME280;35654;46.080;11.118;2023-01-28T09:21:19;99742.38;;;3.41;57.30
49759;BME280;35654;46.080;11.118;2023-01-28T09:23:45;99751.88;;;3.56;56.97
49759;BME280;35654;46.080;11.118;2023-01-28T09:26:11;99750.94;;;3.62;56.79
49759;BME280;35654;46.080;11.118;2023-01-28T09:28:36;99756.16;;;3.80;55.46
49759;BME280;35654;46.080;11.118;2023-01-28T09:31:08;99750.78;;;3.96;54.66
49759;BME280;35654;46.080;11.118;2023-01-28T09:33:35;99754.56;;;3.95;53.23
49759;BME280;35654;46.080;11.118;2023-01-28T09:36:03;99757.66;;;3.87;53.60
49759;BME280;35654;46.080;11.118;2023-01-28T09:38:30;99751.13;;;4.00;53.26
49759;BME280;35654;46.080;11.118;2023-01-28T09:40:55;99753.28;;;4.15;52.51
49759;BME280;35654;46.080;11.118;2023-01-28T09:43:41;99753.47;;;4.25;51.88
49759;BME280;35654;46.080;11.118;2023-01-28T09:46:11;99756.38;;;4.35;51.04
49759;BME280;35654;46.080;11.118;2023-01-28T09:48:42;99751.16;;;4.33;50.26
49759;BME280;35654;46.080;11.118;2023-01-28T09:53:54;99753.06;;;4.33;48.32
49759;BME280;35654;46.080;11.118;2023-01-28T09:56:25;99749.50;;;3.99;48.38
49759;BME280;35654;46.080;11.118;2023-01-28T09:58:54;99748.56;;;3.93;48.62
49759;BME280;35654;46.080;11.118;2023-01-28T10:01:49;99743.63;;;4.35;47.82
49759;BME280;35654;46.080;11.118;2023-01-28T10:04:25;99750.47;;;4.71;46.52
49759;BME280;35654;46.080;11.118;2023-01-28T10:12:33;99738.16;;;5.02;44.99
49759;BME280;35654;46.080;11.118;2023-01-28T10:15:32;99731.03;;;5.17;44.33
49759;BME280;35654;46.080;11.118;2023-01-28T10:18:09;99721.47;;;5.32;44.60
49759;BME280;35654;46.080;11.118;2023-01-28T10:20:40;99707.59;;;5.50;43.78
49759;BME280;35654;46.080;11.118;2023-01-28T10:25:43;99708.44;;;5.77;42.07
49759;BME280;35654;46.080;11.118;2023-01-28T10:28:19;99705.03;;;6.13;41.36
49759;BME280;35654;46.080;11.118;2023-01-28T10:30:46;99700.97;;;6.48;40.77
49759;BME280;35654;46.080;11.118;2023-01-28T10:35:53;99703.28;;;6.34;40.26
49759;BME280;35654;46.080;11.118;2023-01-28T10:38:21;99688.25;;;7.00;38.95
49759;BME280;35654;46.080;11.118;2023-01-28T10:40:48;99691.63;;;7.99;36.97
49759;BME280;35654;46.080;11.118;2023-01-28T10:43:19;99691.50;;;10.38;32.89
49759;BME280;35654;46.080;11.118;2023-01-28T10:46:05;99687.97;;;13.06;29.30
49759;BME280;35654;46.080;11.118;2023-01-28T10:48:37;99679.72;;;16.08;24.56
49759;BME280;35654;46.080;11.118;2023-01-28T10:51:04;99675.34;;;17.22;22.93
49759;BME280;35654;46.080;11.118;2023-01-28T10:53:40;99671.00;;;17.50;21.79
49759;BME280;35654;46.080;11.118;2023-01-28T10:56:07;99673.13;;;17.07;22.12
49759;BME280;35654;46.080;11.118;2023-01-28T10:58:44;99657.72;;;15.86;22.80
49759;BME280;35654;46.080;11.118;2023-01-28T11:01:11;99655.00;;;14.98;23.93
49759;BME280;35654;46.080;11.118;2023-01-28T11:03:37;99647.53;;;17.56;21.62
49759;BME280;35654;46.080;11.118;2023-01-28T11:06:04;99639.78;;;18.74;20.05
49759;BME280;35654;46.080;11.118;2023-01-28T11:08:30;99631.91;;;19.93;19.40
49759;BME280;35654;46.080;11.118;2023-01-28T11:10:56;99635.75;;;20.84;18.27
49759;BME280;35654;46.080;11.118;2023-01-28T11:13:24;99638.22;;;21.17;17.69
49759;BME280;35654;46.080;11.118;2023-01-28T11:16:03;99626.63;;;21.30;17.62
49759;BME280;35654;46.080;11.118;2023-01-28T11:18:39;99615.50;;;21.46;17.29
49759;BME280;35654;46.080;11.118;2023-01-28T11:21:17;99618.06;;;19.57;18.48
49759;BME280;35654;46.080;11.118;2023-01-28T11:23:50;99605.63;;;19.79;18.41
49759;BME280;35654;46.080;11.118;2023-01-28T11:26:32;99601.13;;;19.26;19.12
49759;BME280;35654;46.080;11.118;2023-01-28T11:28:59;99601.13;;;20.54;18.17
49759;BME280;35654;46.080;11.118;2023-01-28T11:31:25;99590.19;;;20.33;17.98
49759;BME280;35654;46.080;11.118;2023-01-28T11:33:54;99583.91;;;19.56;18.64
49759;BME280;35654;46.080;11.118;2023-01-28T11:36:26;99579.91;;;20.33;18.29
49759;BME280;35654;46.080;11.118;2023-01-28T11:38:55;99576.66;;;21.53;17.09
49759;BME280;35654;46.080;11.118;2023-01-28T11:41:32;99580.94;;;20.57;17.40
49759;BME280;35654;46.080;11.118;2023-01-28T11:43:59;99571.22;;;21.91;16.30
49759;BME280;35654;46.080;11.118;2023-01-28T11:51:43;99562.88;;;18.50;18.66
49759;BME280;35654;46.080;11.118;2023-01-28T11:54:16;99561.25;;;15.72;21.19
49759;BME280;35654;46.080;11.118;2023-01-28T11:59:34;99553.19;;;13.24;23.94
49759;BME280;35654;46.080;11.118;2023-01-28T12:08:08;99550.22;;;12.66;25.52
49759;BME280;35654;46.080;11.118;2023-01-28T12:18:36;99525.47;;;12.39;25.15
49759;BME280;35654;46.080;11.118;2023-01-28T12:22:03;99518.34;;;12.93;24.64
49759;BME280;35654;46.080;11.118;2023-01-28T12:26:50;99510.41;;;14.43;22.70
49759;BME280;35654;46.080;11.118;2023-01-28T12:29:43;99505.53;;;15.70;21.84
49759;BME280;35654;46.080;11.118;2023-01-28T12:43:05;99483.75;;;15.34;22.06
49759;BME280;35654;46.080;11.118;2023-01-28T12:45:38;99485.88;;;15.29;21.95
49759;BME280;35654;46.080;11.118;2023-01-28T12:48:22;99481.03;;;16.49;19.73
49759;BME280;35654;46.080;11.118;2023-01-28T12:50:59;99474.97;;;15.15;20.87
49759;BME280;35654;46.080;11.118;2023-01-28T12:53:35;99476.13;;;15.23;20.90
49759;BME280;35654;46.080;11.118;2023-01-28T12:56:10;99474.22;;;15.66;20.26
49759;BME280;35654;46.080;11.118;2023-01-28T13:01:20;99470.84;;;14.78;20.65
49759;BME280;35654;46.080;11.118;2023-01-28T13:04:07;99477.47;;;14.77;20.52
49759;BME280;35654;46.080;11.118;2023-01-28T13:06:55;99468.63;;;14.49;21.21
49759;BME280;35654;46.080;11.118;2023-01-28T13:09:24;99475.13;;;14.23;21.52
49759;BME280;35654;46.080;11.118;2023-01-28T13:11:52;99473.66;;;14.25;21.01
49759;BME280;35654;46.080;11.118;2023-01-28T13:14:22;99477.47;;;12.77;23.08
49759;BME280;35654;46.080;11.118;2023-01-28T13:16:49;99477.84;;;13.48;22.11
49759;BME280;35654;46.080;11.118;2023-01-28T13:21:42;99487.31;;;14.61;20.86
49759;BME280;35654;46.080;11.118;2023-01-28T13:26:46;99474.88;;;13.22;21.60
49759;BME280;35654;46.080;11.118;2023-01-28T13:31:52;99474.84;;;15.37;20.47
49759;BME280;35654;46.080;11.118;2023-01-28T13:34:40;99479.22;;;15.72;19.74
49759;BME280;35654;46.080;11.118;2023-01-28T13:37:49;99481.69;;;14.35;21.06
49759;BME280;35654;46.080;11.118;2023-01-28T13:40:23;99488.31;;;15.99;19.72
49759;BME280;35654;46.080;11.118;2023-01-28T13:43:26;99478.63;;;16.30;19.08
49759;BME280;35654;46.080;11.118;2023-01-28T13:45:58;99478.50;;;17.03;18.95
49759;BME280;35654;46.080;11.118;2023-01-28T13:48:43;99473.13;;;18.79;17.24
49759;BME280;35654;46.080;11.118;2023-01-28T13:51:31;99476.75;;;19.83;16.38
49759;BME280;35654;46.080;11.118;2023-01-28T13:54:07;99474.88;;;20.43;16.10
49759;BME280;35654;46.080;11.118;2023-01-28T13:56:46;99485.94;;;20.27;15.91
49759;BME280;35654;46.080;11.118;2023-01-28T13:59:59;99476.88;;;21.59;14.84
49759;BME280;35654;46.080;11.118;2023-01-28T14:13:32;99492.13;;;19.93;16.22
49759;BME280;35654;46.080;11.118;2023-01-28T14:18:56;99494.94;;;18.23;17.59
49759;BME280;35654;46.080;11.118;2023-01-28T14:21:26;99505.13;;;16.78;18.50
49759;BME280;35654;46.080;11.118;2023-01-28T14:23:54;99503.78;;;17.22;18.52
49759;BME280;35654;46.080;11.118;2023-01-28T14:31:51;99506.28;;;14.63;20.21
49759;BME280;35654;46.080;11.118;2023-01-28T14:34:33;99504.41;;;12.48;23.28
49759;BME280;35654;46.080;11.118;2023-01-28T14:37:15;99505.91;;;11.06;25.31
49759;BME280;35654;46.080;11.118;2023-01-28T14:39:50;99510.31;;;10.36;26.75
49759;BME280;35654;46.080;11.118;2023-01-28T14:42:22;99506.56;;;10.27;27.24
49759;BME280;35654;46.080;11.118;2023-01-28T14:55:56;99515.59;;;9.65;30.40
49759;BME280;35654;46.080;11.118;2023-01-28T14:58:36;99515.03;;;9.68;29.83
49759;BME280;35654;46.080;11.118;2023-01-28T15:01:03;99517.94;;;9.43;30.33
49759;BME280;35654;46.080;11.118;2023-01-28T15:03:34;99523.19;;;9.34;30.75
49759;BME280;35654;46.080;11.118;2023-01-28T15:06:13;99525.13;;;9.29;30.80
49759;BME280;35654;46.080;11.118;2023-01-28T15:08:38;99525.31;;;8.99;31.95
49759;BME280;35654;46.080;11.118;2023-01-28T15:11:05;99531.25;;;9.11;31.58